Time;durP1;ratioP1;P1;durP2;ratioP2;P2;SDS_P1;SDS_P2;PMS_P1;PMS_P2;Temp;Humidity;BMP_temperature;BMP_pressure;BME280_temperature;BME280_humidity;BME280_pressure;Samples;Min_cycle;Max_cycle;Signal;HPM_P1;HPM_P2
2022/05/11 00:01:26;;;;;;;7.72;5.43;;;;;;;;;;4920317;29;20043;-90
2022/05/11 00:03:52;;;;;;;7.28;5.30;;;;;;;;;;4920721;29;20028;-90
2022/05/11 00:06:34;;;;;;;6.10;4.90;;;;;;;;;;4920079;29;20036;-90
2022/05/11 00:09:07;;;;;;;7.10;4.63;;;;;;;;;;4920530;29;20143;-91
2022/05/11 00:11:33;;;;;;;8.32;5.45;;;;;;;;;;4931787;29;20062;-89
2022/05/11 00:14:00;;;;;;;7.05;5.20;;;;;;;;;;4936190;29;20032;-89
2022/05/11 00:16:31;;;;;;;9.70;4.97;;;;;;;;;;4936273;29;20385;-89
2022/05/11 00:19:07;;;;;;;6.28;4.90;;;;;;;;;;4936055;29;20028;-94
2022/05/11 00:21:33;;;;;;;8.48;5.00;;;;;;;;;;4935592;29;20032;-89
2022/05/11 00:24:02;;;;;;;8.52;4.95;;;;;;;;;;4936218;29;20477;-86
2022/05/11 00:26:28;;;;;;;7.95;4.90;;;;;;;;;;4935431;29;20412;-89
2022/05/11 00:29:00;;;;;;;9.35;5.00;;;;;;;;;;4935730;29;20024;-95
2022/05/11 00:31:32;;;;;;;6.30;4.57;;;;;;;;;;4935600;29;20171;-94
2022/05/11 00:33:59;;;;;;;8.82;5.18;;;;;;;;;;4935628;29;20039;-89
2022/05/11 00:36:25;;;;;;;6.55;4.72;;;;;;;;;;4935583;29;20168;-88
2022/05/11 00:38:51;;;;;;;9.43;5.03;;;;;;;;;;4935438;29;20036;-88
2022/05/11 00:41:18;;;;;;;9.38;4.90;;;;;;;;;;4936133;29;20028;-88
2022/05/11 00:44:12;;;;;;;9.07;5.63;;;;;;;;;;4938940;29;20040;-91
2022/05/11 00:46:39;;;;;;;;;;;;;;;;;;4935910;29;20032;-89
2022/05/11 00:52:08;;;;;;;7.40;5.07;;;;;;;;;;4920728;29;20039;-89
2022/05/11 00:54:37;;;;;;;7.70;5.68;;;;;;;;;;4935386;29;20039;-88
2022/05/11 00:57:06;;;;;;;7.97;5.13;;;;;;;;;;4934881;29;20043;-89
2022/05/11 00:59:39;;;;;;;8.77;5.80;;;;;;;;;;4934054;29;20028;-91
2022/05/11 01:02:06;;;;;;;8.52;5.70;;;;;;;;;;4918794;29;20040;-88
2022/05/11 01:04:42;;;;;;;6.65;5.50;;;;;;;;;;4935364;29;20026;-95
2022/05/11 01:07:16;;;;;;;7.68;5.57;;;;;;;;;;4935051;29;20056;-91
2022/05/11 01:09:48;;;;;;;9.80;5.90;;;;;;;;;;4934971;29;20040;-90
2022/05/11 01:12:21;;;;;;;8.88;5.75;;;;;;;;;;4919084;29;20048;-95
2022/05/11 01:14:53;;;;;;;7.75;6.20;;;;;;;;;;4918869;29;20553;-90
2022/05/11 01:17:19;;;;;;;8.18;5.93;;;;;;;;;;4919179;29;20111;-94
2022/05/11 01:19:57;;;;;;;9.50;5.05;;;;;;;;;;4917828;29;20552;-91
2022/05/11 01:22:42;;;;;;;8.30;5.90;;;;;;;;;;4922568;29;20043;-89
2022/05/11 01:25:11;;;;;;;7.38;5.88;;;;;;;;;;4918951;29;20481;-93
2022/05/11 01:27:42;;;;;;;8.02;5.53;;;;;;;;;;4918872;29;20035;-92
2022/05/11 01:30:17;;;;;;;6.30;4.78;;;;;;;;;;4918762;29;20070;-94
2022/05/11 01:32:58;;;;;;;9.52;5.75;;;;;;;;;;4919777;29;20032;-92
2022/05/11 01:35:36;;;;;;;6.20;5.25;;;;;;;;;;4920891;29;20028;-89
2022/05/11 01:38:15;;;;;;;8.75;5.60;;;;;;;;;;4918812;29;20035;-88
2022/05/11 01:40:41;;;;;;;8.90;5.90;;;;;;;;;;4919041;29;20039;-91
2022/05/11 01:43:09;;;;;;;6.45;5.13;;;;;;;;;;4919882;29;20469;-89
2022/05/11 01:45:35;;;;;;;8.35;5.55;;;;;;;;;;4919869;29;20024;-88
2022/05/11 01:48:02;;;;;;;7.43;4.88;;;;;;;;;;4918850;29;20028;-94
2022/05/11 01:50:28;;;;;;;7.70;5.43;;;;;;;;;;4918940;29;20040;-89
2022/05/11 01:52:54;;;;;;;10.30;5.40;;;;;;;;;;4918158;29;20027;-94
2022/05/11 01:55:20;;;;;;;10.05;5.40;;;;;;;;;;4918170;29;20052;-93
2022/05/11 01:57:46;;;;;;;7.97;5.82;;;;;;;;;;4918450;29;20500;-93
2022/05/11 02:00:12;;;;;;;6.32;5.15;;;;;;;;;;4918380;29;20036;-88
2022/05/11 02:02:39;;;;;;;7.57;5.85;;;;;;;;;;4923996;29;20024;-90
2022/05/11 02:07:53;;;;;;;9.02;5.40;;;;;;;;;;4919613;29;20040;-95
2022/05/11 02:10:28;;;;;;;7.55;5.20;;;;;;;;;;4920221;29;20056;-89
2022/05/11 02:12:57;;;;;;;9.00;5.75;;;;;;;;;;4933773;29;20039;-88
2022/05/11 02:15:23;;;;;;;6.82;5.13;;;;;;;;;;4933680;29;20032;-89
2022/05/11 02:17:50;;;;;;;8.43;5.40;;;;;;;;;;4933606;29;20032;-93
2022/05/11 02:20:17;;;;;;;9.82;5.80;;;;;;;;;;4933583;29;20028;-88
2022/05/11 02:22:43;;;;;;;10.07;5.70;;;;;;;;;;4933507;29;20057;-94
2022/05/11 02:25:10;;;;;;;6.85;5.70;;;;;;;;;;4934679;29;20071;-88
2022/05/11 02:27:36;;;;;;;11.63;5.93;;;;;;;;;;4918736;29;20032;-88
2022/05/11 02:30:03;;;;;;;8.77;5.95;;;;;;;;;;4933836;29;20131;-89
2022/05/11 02:32:29;;;;;;;8.90;5.70;;;;;;;;;;4933477;29;20024;-93
2022/05/11 02:35:17;;;;;;;8.57;5.55;;;;;;;;;;4933377;29;20400;-90
2022/05/11 02:37:57;;;;;;;7.88;5.75;;;;;;;;;;4933677;29;20024;-93
2022/05/11 02:40:27;;;;;;;8.20;5.85;;;;;;;;;;4933246;29;20039;-88
2022/05/11 02:42:57;;;;;;;8.32;5.50;;;;;;;;;;4933284;29;20405;-88
2022/05/11 02:45:24;;;;;;;11.07;5.20;;;;;;;;;;4936368;29;20063;-88
2022/05/11 02:47:51;;;;;;;8.10;5.38;;;;;;;;;;4934905;29;20024;-89
2022/05/11 02:50:19;;;;;;;7.55;5.78;;;;;;;;;;4933273;29;20064;-88
2022/05/11 02:52:48;;;;;;;8.80;5.43;;;;;;;;;;4933054;29;20033;-89
2022/05/11 02:55:14;;;;;;;8.40;5.53;;;;;;;;;;4933643;29;20088;-89
2022/05/11 02:57:44;;;;;;;8.23;5.70;;;;;;;;;;4933673;29;20028;-89
2022/05/11 03:00:17;;;;;;;6.63;5.10;;;;;;;;;;4940988;29;20032;-92
2022/05/11 03:02:46;;;;;;;9.35;5.68;;;;;;;;;;4917701;29;20489;-88
2022/05/11 03:05:21;;;;;;;10.90;5.80;;;;;;;;;;4932103;29;20056;-93
2022/05/11 03:07:54;;;;;;;15.43;6.50;;;;;;;;;;4935534;29;20039;-93
2022/05/11 03:10:23;;;;;;;9.35;5.90;;;;;;;;;;4932379;29;20056;-94
2022/05/11 03:12:55;;;;;;;9.15;6.03;;;;;;;;;;4933339;29;20069;-95
2022/05/11 03:15:24;;;;;;;7.47;5.93;;;;;;;;;;4933059;29;20123;-89
2022/05/11 03:17:54;;;;;;;12.02;6.47;;;;;;;;;;4933265;29;20028;-89
2022/05/11 03:20:23;;;;;;;10.60;6.50;;;;;;;;;;4932955;29;20541;-89
2022/05/11 03:22:58;;;;;;;9.23;6.13;;;;;;;;;;4936226;28;20037;-89
2022/05/11 03:25:27;;;;;;;10.35;6.28;;;;;;;;;;4937501;29;20485;-88
2022/05/11 03:27:53;;;;;;;7.80;5.78;;;;;;;;;;4941703;29;20028;-88
2022/05/11 03:30:20;;;;;;;7.22;5.43;;;;;;;;;;4949883;29;20469;-89
2022/05/11 03:35:31;;;;;;;7.72;5.72;;;;;;;;;;4925031;29;20073;-93
2022/05/11 03:37:57;;;;;;;10.48;5.50;;;;;;;;;;4955043;29;20072;-88
2022/05/11 03:40:24;;;;;;;9.73;5.65;;;;;;;;;;4950922;29;20036;-89
2022/05/11 03:42:50;;;;;;;6.72;5.43;;;;;;;;;;4947982;29;20031;-88
2022/05/11 03:45:18;;;;;;;8.73;5.60;;;;;;;;;;4949161;29;20032;-89
2022/05/11 03:47:45;;;;;;;7.90;5.30;;;;;;;;;;4951679;29;20058;-89
2022/05/11 03:50:12;;;;;;;8.45;5.93;;;;;;;;;;4952730;29;20040;-88
2022/05/11 03:52:38;;;;;;;9.43;5.72;;;;;;;;;;4943693;29;20027;-87
2022/05/11 03:55:05;;;;;;;8.13;5.10;;;;;;;;;;4946733;29;20039;-89
2022/05/11 03:57:35;;;;;;;6.65;5.40;;;;;;;;;;4947454;29;20025;-90
2022/05/11 04:00:01;;;;;;;9.68;5.88;;;;;;;;;;4951311;29;20489;-87
2022/05/11 04:02:31;;;;;;;8.13;5.68;;;;;;;;;;4955700;29;20028;-92
2022/05/11 04:05:04;;;;;;;8.18;5.50;;;;;;;;;;4955976;29;20051;-93
2022/05/11 04:07:30;;;;;;;12.07;5.53;;;;;;;;;;4954886;29;20025;-89
2022/05/11 04:10:06;;;;;;;10.85;5.97;;;;;;;;;;4955591;29;20039;-94
2022/05/11 04:12:32;;;;;;;10.18;5.93;;;;;;;;;;4933277;29;20047;-88
2022/05/11 04:15:07;;;;;;;7.97;5.82;;;;;;;;;;4929852;29;20032;-93
2022/05/11 04:17:34;;;;;;;7.95;5.82;;;;;;;;;;4927819;29;20119;-89
2022/05/11 04:20:00;;;;;;;13.23;5.80;;;;;;;;;;4921629;29;20426;-91
2022/05/11 04:22:26;;;;;;;8.02;5.97;;;;;;;;;;4919382;29;20028;-85
2022/05/11 04:24:52;;;;;;;8.02;6.13;;;;;;;;;;4919722;29;20032;-86
2022/05/11 04:27:19;;;;;;;10.38;5.78;;;;;;;;;;4920733;29;20031;-88
2022/05/11 04:29:45;;;;;;;11.50;6.45;;;;;;;;;;4919698;29;20044;-89
2022/05/11 04:32:11;;;;;;;8.73;6.35;;;;;;;;;;4919306;29;20068;-87
2022/05/11 04:34:40;;;;;;;9.32;6.57;;;;;;;;;;4920253;29;20038;-85
2022/05/11 04:37:07;;;;;;;7.85;6.30;;;;;;;;;;4919917;29;20032;-88
2022/05/11 04:39:33;;;;;;;8.48;6.95;;;;;;;;;;4919703;29;20062;-90
2022/05/11 04:42:00;;;;;;;9.45;6.40;;;;;;;;;;4920679;29;20032;-87
2022/05/11 04:44:50;;;;;;;8.15;5.72;;;;;;;;;;4919523;29;20187;-86
2022/05/11 04:47:20;;;;;;;8.68;6.20;;;;;;;;;;4902068;29;20045;-91
2022/05/11 04:49:46;;;;;;;7.88;4.70;;;;;;;;;;4906309;29;20032;-90
2022/05/11 04:52:54;;;;;;;9.43;4.85;;;;;;;;;;4928138;29;20035;-83
2022/05/11 04:58:30;;;;;;;8.88;4.35;;;;;;;;;;4908778;29;20056;-90
2022/05/11 05:00:56;;;;;;;8.93;3.40;;;;;;;;;;5768571;23;20027;-85
2022/05/11 05:03:22;;;;;;;8.13;3.58;;;;;;;;;;4935882;29;20485;-85
2022/05/11 05:05:49;;;;;;;8.70;3.97;;;;;;;;;;4937828;29;20034;-86
2022/05/11 05:08:15;;;;;;;7.57;3.00;;;;;;;;;;4938703;29;20167;-88
2022/05/11 05:10:41;;;;;;;8.75;3.58;;;;;;;;;;4939446;29;20091;-87
2022/05/11 05:13:10;;;;;;;6.25;3.50;;;;;;;;;;4939926;29;20024;-89
2022/05/11 05:15:37;;;;;;;10.85;3.88;;;;;;;;;;4937973;29;20024;-86
2022/05/11 05:18:09;;;;;;;5.50;3.30;;;;;;;;;;4939066;29;20563;-92
2022/05/11 05:31:18;;;;;;;8.68;5.00;;;;;;;;;;4900774;29;20051;-88
2022/05/11 05:33:58;;;;;;;;;;;;;;;;;;;;;
2022/05/11 05:36:24;;;;;;;10.48;6.20;;;;;;;;;;4901396;29;20386;-87
2022/05/11 05:38:58;;;;;;;9.90;6.57;;;;;;;;;;4883853;29;20490;-89
2022/05/11 05:41:25;;;;;;;11.73;6.32;;;;;;;;;;4883773;29;20035;-87
2022/05/11 05:43:54;;;;;;;13.32;6.50;;;;;;;;;;4915133;29;20040;-92
2022/05/11 05:46:21;;;;;;;15.07;6.60;;;;;;;;;;4914718;29;20056;-88
2022/05/11 05:48:47;;;;;;;12.90;7.13;;;;;;;;;;4915169;29;20182;-87
2022/05/11 05:51:14;;;;;;;12.07;6.90;;;;;;;;;;4915880;29;20033;-84
2022/05/11 05:53:41;;;;;;;12.68;6.53;;;;;;;;;;4908801;29;20088;-89
2022/05/11 05:56:24;;;;;;;21.85;7.97;;;;;;;;;;4899868;29;20131;-92
2022/05/11 05:58:50;;;;;;;13.40;7.55;;;;;;;;;;4900665;29;20032;-89
2022/05/11 06:01:41;;;;;;;16.45;7.38;;;;;;;;;;4899057;29;20044;-92
2022/05/11 06:04:37;;;;;;;13.80;8.35;;;;;;;;;;4900184;29;20056;-91
2022/05/11 06:07:03;;;;;;;12.10;8.00;;;;;;;;;;4881550;29;20092;-86
2022/05/11 06:09:29;;;;;;;15.45;8.88;;;;;;;;;;4899445;29;20032;-92
2022/05/11 06:11:57;;;;;;;13.32;7.43;;;;;;;;;;4883502;29;20067;-86
2022/05/11 06:14:24;;;;;;;16.27;8.70;;;;;;;;;;4899080;29;20095;-92
2022/05/11 06:16:50;;;;;;;10.90;7.80;;;;;;;;;;4899757;29;20033;-88
2022/05/11 06:19:16;;;;;;;11.45;8.05;;;;;;;;;;4899180;29;20039;-87
2022/05/11 06:21:44;;;;;;;10.65;8.35;;;;;;;;;;4898714;29;20032;-91
2022/05/11 06:27:17;;;;;;;13.13;8.80;;;;;;;;;;4885170;29;20515;-92
2022/05/11 06:29:43;;;;;;;16.27;9.45;;;;;;;;;;4901593;29;20048;-85
2022/05/11 06:32:09;;;;;;;11.63;8.70;;;;;;;;;;4898655;29;20048;-88
2022/05/11 06:34:38;;;;;;;13.85;9.73;;;;;;;;;;4900192;29;20035;-91
2022/05/11 06:37:10;;;;;;;14.40;9.23;;;;;;;;;;4903545;29;20036;-91
2022/05/11 06:40:05;;;;;;;12.98;8.90;;;;;;;;;;4902886;29;20119;-89
2022/05/11 06:42:38;;;;;;;11.70;8.30;;;;;;;;;;4886559;29;20116;-92
2022/05/11 06:45:05;;;;;;;8.83;7.37;;;;;;;;;;4898348;29;20028;-90
2022/05/11 06:47:32;;;;;;;15.45;8.85;;;;;;;;;;4898278;29;20092;-89
2022/05/11 06:49:58;;;;;;;11.85;8.55;;;;;;;;;;4898003;29;20040;-88
2022/05/11 06:52:24;;;;;;;14.15;8.05;;;;;;;;;;4897277;29;20053;-77
2022/05/11 07:00:20;;;;;;;11.50;8.45;;;;;;;;;;4899843;29;20052;-85
2022/05/11 07:02:46;;;;;;;13.70;8.57;;;;;;;;;;4899089;29;20035;-89
2022/05/11 07:05:13;;;;;;;11.63;8.68;;;;;;;;;;4898086;29;20036;-86
2022/05/11 07:07:40;;;;;;;16.73;8.68;;;;;;;;;;4898201;29;20032;-86
2022/05/11 07:10:07;;;;;;;12.57;9.20;;;;;;;;;;4897781;29;20036;-83
2022/05/11 07:12:35;;;;;;;18.63;7.93;;;;;;;;;;4897235;29;20029;-84
2022/05/11 07:15:02;;;;;;;18.13;9.50;;;;;;;;;;4897206;29;20029;-80
2022/05/11 07:17:33;;;;;;;15.10;8.65;;;;;;;;;;4898110;29;20036;-88
2022/05/11 07:20:01;;;;;;;14.05;8.05;;;;;;;;;;4898368;29;20115;-87
2022/05/11 07:22:27;;;;;;;10.85;8.38;;;;;;;;;;4899582;29;20060;-86
2022/05/11 07:24:54;;;;;;;11.30;8.40;;;;;;;;;;4898913;29;20056;-93
2022/05/11 07:27:21;;;;;;;11.63;8.50;;;;;;;;;;4900890;29;20060;-87
2022/05/11 07:29:51;;;;;;;13.90;7.25;;;;;;;;;;4913380;29;20064;-86
2022/05/11 07:32:17;;;;;;;12.50;8.00;;;;;;;;;;4914280;29;20029;-89
2022/05/11 07:34:43;;;;;;;9.07;5.15;;;;;;;;;;4913567;29;20061;-86
2022/05/11 07:37:09;;;;;;;8.48;5.95;;;;;;;;;;4913511;29;20025;-86
2022/05/11 07:39:39;;;;;;;11.02;5.90;;;;;;;;;;4913607;29;20399;-91
2022/05/11 07:42:05;;;;;;;10.52;6.63;;;;;;;;;;4913428;29;20035;-89
2022/05/11 07:44:31;;;;;;;12.63;8.40;;;;;;;;;;4913789;29;20065;-84
2022/05/11 07:46:57;;;;;;;8.00;6.45;;;;;;;;;;4899310;29;20024;-87
2022/05/11 07:49:44;;;;;;;8.75;6.38;;;;;;;;;;4915348;29;20028;-90
2022/05/11 07:52:17;;;;;;;7.72;4.90;;;;;;;;;;4903143;29;20024;-93
2022/05/11 07:54:44;;;;;;;;;;;;;;;;;;4914042;29;20108;-89
2022/05/11 08:00:01;;;;;;;10.98;6.15;;;;;;;;;;4897196;29;20390;-88
2022/05/11 08:02:31;;;;;;;8.25;5.90;;;;;;;;;;4912167;29;20028;-88
2022/05/11 08:05:01;;;;;;;9.57;6.38;;;;;;;;;;4923358;29;20525;-89
2022/05/11 08:07:57;;;;;;;8.32;5.90;;;;;;;;;;4917018;29;20029;-87
2022/05/11 08:10:24;;;;;;;8.73;6.10;;;;;;;;;;4893766;29;20041;-84
2022/05/11 08:12:52;;;;;;;9.85;6.45;;;;;;;;;;4907130;29;20040;-85
2022/05/11 08:15:19;;;;;;;9.55;6.15;;;;;;;;;;4914871;29;20493;-83
2022/05/11 08:17:46;;;;;;;10.23;6.25;;;;;;;;;;4916327;29;20028;-87
2022/05/11 08:20:24;;;;;;;7.85;6.72;;;;;;;;;;4915602;29;20044;-83
2022/05/11 08:22:51;;;;;;;9.98;6.85;;;;;;;;;;4916324;29;20064;-85
2022/05/11 08:25:22;;;;;;;9.93;6.55;;;;;;;;;;4916609;29;20115;-87
2022/05/11 08:27:51;;;;;;;237.48;13.57;;;;;;;;;;4915683;29;20045;-89
2022/05/11 08:33:19;;;;;;;7.53;4.60;;;;;;;;;;4901629;29;20071;-83
2022/05/11 08:35:46;;;;;;;7.93;4.53;;;;;;;;;;4915564;29;20029;-85
2022/05/11 08:38:12;;;;;;;8.38;4.70;;;;;;;;;;4900983;29;20028;-83
2022/05/11 08:40:46;;;;;;;7.00;4.15;;;;;;;;;;4901323;29;20052;-93
2022/05/11 08:43:13;;;;;;;9.20;3.80;;;;;;;;;;4915559;29;20025;-82
2022/05/11 08:45:43;;;;;;;6.30;4.47;;;;;;;;;;4915443;29;20128;-93
2022/05/11 08:48:11;;;;;;;5.78;4.57;;;;;;;;;;4915284;29;20497;-82
2022/05/11 08:50:38;;;;;;;8.10;4.05;;;;;;;;;;4915189;29;20095;-84
2022/05/11 08:53:06;;;;;;;7.50;4.95;;;;;;;;;;4915264;29;20044;-93
2022/05/11 08:55:49;;;;;;;5.18;4.05;;;;;;;;;;4915458;29;20536;-87
2022/05/11 08:58:18;;;;;;;6.78;3.97;;;;;;;;;;4915163;29;20073;-92
2022/05/11 09:00:45;;;;;;;7.80;4.35;;;;;;;;;;4900677;29;20045;-80
2022/05/11 09:03:18;;;;;;;5.97;3.90;;;;;;;;;;4900467;29;20530;-84
2022/05/11 09:05:44;;;;;;;6.22;4.03;;;;;;;;;;4909627;29;20495;-83
2022/05/11 09:08:11;;;;;;;7.80;4.18;;;;;;;;;;4881769;29;20051;-85
2022/05/11 09:10:38;;;;;;;6.53;3.58;;;;;;;;;;4892696;29;20087;-85
2022/05/11 09:13:06;;;;;;;8.75;5.07;;;;;;;;;;4914987;29;20111;-85
2022/05/11 09:16:02;;;;;;;5.57;3.60;;;;;;;;;;4914593;29;20025;-80
2022/05/11 09:18:31;;;;;;;7.93;3.45;;;;;;;;;;4891834;29;20163;-80
2022/05/11 09:20:58;;;;;;;9.43;3.45;;;;;;;;;;4914050;29;20040;-82
2022/05/11 09:23:36;;;;;;;6.85;3.70;;;;;;;;;;4915626;29;20463;-86
2022/05/11 09:26:07;;;;;;;6.25;4.40;;;;;;;;;;4914663;29;20126;-78
2022/05/11 09:28:35;;;;;;;7.30;5.15;;;;;;;;;;4911200;29;20041;-80
2022/05/11 09:31:12;;;;;;;5.90;3.78;;;;;;;;;;4910603;29;20384;-80
2022/05/11 09:33:43;;;;;;;7.03;4.28;;;;;;;;;;4911315;29;20028;-93
2022/05/11 09:36:10;;;;;;;5.03;3.17;;;;;;;;;;4911795;29;20044;-80
2022/05/11 09:38:40;;;;;;;5.95;3.50;;;;;;;;;;4881586;29;20104;-80
2022/05/11 09:41:23;;;;;;;6.00;3.80;;;;;;;;;;4911142;29;20040;-80
2022/05/11 09:43:56;;;;;;;5.57;3.38;;;;;;;;;;4911453;29;20036;-87
2022/05/11 09:46:32;;;;;;;7.47;3.35;;;;;;;;;;4911329;29;20039;-82
2022/05/11 09:49:01;;;;;;;5.47;3.40;;;;;;;;;;4911665;29;20029;-88
2022/05/11 09:51:50;;;;;;;9.02;3.35;;;;;;;;;;4910967;29;20031;-89
2022/05/11 09:54:23;;;;;;;4.35;2.60;;;;;;;;;;4871637;29;20454;-83
2022/05/11 09:56:50;;;;;;;4.32;2.40;;;;;;;;;;4910976;29;20025;-82
2022/05/11 09:59:16;;;;;;;4.80;2.67;;;;;;;;;;4911212;29;20025;-82
2022/05/11 10:01:42;;;;;;;7.13;2.83;;;;;;;;;;4910759;29;20103;-82
2022/05/11 10:04:10;;;;;;;4.13;2.50;;;;;;;;;;4911007;29;20489;-85
2022/05/11 10:06:42;;;;;;;5.70;2.63;;;;;;;;;;4911001;29;20394;-82
2022/05/11 10:09:09;;;;;;;4.20;2.30;;;;;;;;;;4911257;29;20538;-85
2022/05/11 10:11:41;;;;;;;4.53;2.63;;;;;;;;;;4910782;29;20021;-85
2022/05/11 10:22:43;;;;;;;4.85;2.40;;;;;;;;;;4880689;29;20041;-82
2022/05/11 10:25:21;;;;;;;4.43;2.60;;;;;;;;;;4910363;29;20029;-81
2022/05/11 10:27:59;;;;;;;3.00;2.05;;;;;;;;;;4910157;29;20495;-81
2022/05/11 10:30:28;;;;;;;7.03;2.85;;;;;;;;;;4910328;29;20037;-83
2022/05/11 10:33:02;;;;;;;3.40;2.17;;;;;;;;;;4910245;29;20025;-80
2022/05/11 10:35:37;;;;;;;3.80;2.13;;;;;;;;;;4910471;29;20029;-84
2022/05/11 10:38:13;;;;;;;3.60;2.22;;;;;;;;;;4910631;29;20036;-83
2022/05/11 10:40:48;;;;;;;5.40;2.28;;;;;;;;;;4910449;29;20033;-86
2022/05/11 10:43:32;;;;;;;5.20;2.00;;;;;;;;;;4910320;29;20037;-85
2022/05/11 10:46:03;;;;;;;4.13;1.90;;;;;;;;;;4910195;29;20097;-89
2022/05/11 10:48:39;;;;;;;11.05;2.40;;;;;;;;;;4909711;29;20051;-84
2022/05/11 10:51:28;;;;;;;6.07;2.25;;;;;;;;;;4880103;29;20029;-80
2022/05/11 10:54:05;;;;;;;3.75;1.70;;;;;;;;;;4894500;29;20057;-82
2022/05/11 10:56:47;;;;;;;4.75;2.10;;;;;;;;;;4880056;29;20036;-84
2022/05/11 10:59:13;;;;;;;4.55;2.30;;;;;;;;;;4910357;29;20184;-84
2022/05/11 11:01:45;;;;;;;3.08;2.03;;;;;;;;;;4909992;29;20041;-89
2022/05/11 11:04:25;;;;;;;4.70;2.10;;;;;;;;;;4910999;29;20029;-84
2022/05/11 11:09:39;;;;;;;4.07;2.10;;;;;;;;;;4898404;29;20067;-83
2022/05/11 11:12:06;;;;;;;5.70;2.30;;;;;;;;;;4912852;29;20107;-81
2022/05/11 11:14:34;;;;;;;4.70;2.13;;;;;;;;;;4898303;29;20032;-83
2022/05/11 11:17:04;;;;;;;3.55;1.85;;;;;;;;;;4898175;29;20069;-81
2022/05/11 11:19:31;;;;;;;6.22;2.10;;;;;;;;;;4898187;29;20032;-81
2022/05/11 11:22:00;;;;;;;3.17;1.98;;;;;;;;;;4898235;29;20505;-80
2022/05/11 11:24:27;;;;;;;5.57;1.95;;;;;;;;;;4898259;29;20065;-82
2022/05/11 11:26:58;;;;;;;4.10;2.15;;;;;;;;;;4897953;29;20096;-75
2022/05/11 11:29:40;;;;;;;4.85;2.20;;;;;;;;;;4898277;29;20032;-83
2022/05/11 11:32:08;;;;;;;5.57;2.13;;;;;;;;;;4898541;29;20025;-86
2022/05/11 11:34:44;;;;;;;4.20;2.22;;;;;;;;;;4889647;29;20100;-79
2022/05/11 11:37:26;;;;;;;4.80;2.13;;;;;;;;;;4884054;29;20064;-81
2022/05/11 11:39:54;;;;;;;5.10;2.20;;;;;;;;;;4912962;29;20055;-86
2022/05/11 11:42:40;;;;;;;4.45;2.33;;;;;;;;;;4898217;29;20029;-84
2022/05/11 11:45:09;;;;;;;3.13;2.38;;;;;;;;;;4901588;29;20489;-81
2022/05/11 11:47:59;;;;;;;5.43;2.42;;;;;;;;;;4884683;29;20180;-84
2022/05/11 11:50:46;;;;;;;6.07;2.47;;;;;;;;;;4867238;29;20025;-80
2022/05/11 11:53:13;;;;;;;6.68;2.70;;;;;;;;;;4900679;29;20040;-80
2022/05/11 11:55:40;;;;;;;6.85;2.65;;;;;;;;;;4901760;29;20100;-85
2022/05/11 11:58:25;;;;;;;5.72;2.70;;;;;;;;;;4900277;29;20171;-81
2022/05/11 12:00:54;;;;;;;6.43;2.63;;;;;;;;;;4903528;29;20055;-84
2022/05/11 12:03:23;;;;;;;7.15;2.40;;;;;;;;;;4900707;29;20025;-83
2022/05/11 12:05:54;;;;;;;4.20;2.75;;;;;;;;;;4900628;29;20556;-80
2022/05/11 12:16:56;;;;;;;6.17;2.43;;;;;;;;;;4901398;29;20059;-79
2022/05/11 12:19:24;;;;;;;5.13;2.70;;;;;;;;;;4901289;29;20033;-81
2022/05/11 12:21:56;;;;;;;5.85;2.58;;;;;;;;;;4901108;29;20052;-81
2022/05/11 12:24:26;;;;;;;4.68;2.50;;;;;;;;;;4915891;29;20485;-93
2022/05/11 12:26:59;;;;;;;5.70;2.97;;;;;;;;;;4903430;29;20036;-79
2022/05/11 12:32:20;;;;;;;5.45;2.40;;;;;;;;;;4920205;29;20456;-80
2022/05/11 12:34:46;;;;;;;5.55;2.70;;;;;;;;;;4903009;29;20024;-79
2022/05/11 12:37:27;;;;;;;6.78;2.97;;;;;;;;;;4920020;29;20028;-81
2022/05/11 12:40:05;;;;;;;6.95;2.40;;;;;;;;;;4902849;29;20032;-80
2022/05/11 12:42:35;;;;;;;5.25;2.22;;;;;;;;;;4889888;29;20040;-88
2022/05/11 12:45:01;;;;;;;5.15;2.50;;;;;;;;;;4901179;29;20033;-80
2022/05/11 12:47:28;;;;;;;2.80;2.08;;;;;;;;;;4900120;29;20033;-85
2022/05/11 12:49:54;;;;;;;5.93;2.67;;;;;;;;;;4901203;29;20494;-86
2022/05/11 12:52:24;;;;;;;3.08;2.20;;;;;;;;;;4900890;29;20111;-80
2022/05/11 12:55:02;;;;;;;4.47;2.47;;;;;;;;;;4898314;29;20430;-81
2022/05/11 12:57:39;;;;;;;4.68;2.10;;;;;;;;;;4899567;29;20024;-84
2022/05/11 13:00:17;;;;;;;11.60;2.33;;;;;;;;;;4899566;29;20025;-80
2022/05/11 13:02:45;;;;;;;4.43;2.38;;;;;;;;;;4899437;29;20032;-80
2022/05/11 13:05:14;;;;;;;5.75;2.20;;;;;;;;;;4880449;29;20537;-85
2022/05/11 13:07:56;;;;;;;3.75;2.08;;;;;;;;;;4880795;29;20048;-83
2022/05/11 13:10:27;;;;;;;7.35;2.53;;;;;;;;;;4881788;29;20032;-83
2022/05/11 13:12:55;;;;;;;5.75;2.33;;;;;;;;;;4880477;29;20029;-85
2022/05/11 13:15:52;;;;;;;3.58;2.05;;;;;;;;;;4880665;29;20495;-86
2022/05/11 13:18:28;;;;;;;3.90;2.10;;;;;;;;;;4854561;29;20037;-84
2022/05/11 13:20:56;;;;;;;6.80;2.30;;;;;;;;;;4881669;29;20103;-84
2022/05/11 13:23:25;;;;;;;4.30;2.20;;;;;;;;;;4905676;29;20558;-84
2022/05/11 13:25:52;;;;;;;5.30;2.17;;;;;;;;;;4896998;29;20036;-82
2022/05/11 13:28:24;;;;;;;2.55;1.90;;;;;;;;;;4909243;29;20430;-82
2022/05/11 13:30:56;;;;;;;3.97;2.10;;;;;;;;;;4899723;29;20075;-84
2022/05/11 13:33:34;;;;;;;6.20;2.15;;;;;;;;;;4914740;29;20036;-83
2022/05/11 13:36:20;;;;;;;4.28;2.33;;;;;;;;;;4914809;29;20032;-84
2022/05/11 13:38:49;;;;;;;2.83;1.90;;;;;;;;;;4914196;29;20120;-82
2022/05/11 13:41:17;;;;;;;5.65;2.35;;;;;;;;;;4914468;29;20040;-83
2022/05/11 13:43:49;;;;;;;4.07;2.20;;;;;;;;;;4899865;29;20063;-83
2022/05/11 13:46:31;;;;;;;6.80;2.38;;;;;;;;;;4899800;29;20076;-83
2022/05/11 13:49:32;;;;;;;5.32;2.00;;;;;;;;;;4913789;29;20033;-86
2022/05/11 13:51:59;;;;;;;4.00;2.25;;;;;;;;;;4846063;29;20032;-83
2022/05/11 13:54:48;;;;;;;4.93;1.75;;;;;;;;;;4844939;29;20033;-84
2022/05/11 13:57:28;;;;;;;4.15;1.90;;;;;;;;;;4848403;29;20064;-85
2022/05/11 13:59:55;;;;;;;5.18;2.05;;;;;;;;;;4857789;29;20463;-92
2022/05/11 14:02:22;;;;;;;2.92;2.05;;;;;;;;;;4880245;29;20486;-83
2022/05/11 14:04:48;;;;;;;5.78;2.13;;;;;;;;;;4880309;29;20029;-94
2022/05/11 14:07:35;;;;;;;4.47;2.20;;;;;;;;;;4880303;29;20033;-84
2022/05/11 14:10:01;;;;;;;3.75;2.20;;;;;;;;;;4879751;29;20131;-83
2022/05/11 14:12:28;;;;;;;5.13;2.50;;;;;;;;;;4880335;29;20029;-96
2022/05/11 14:14:54;;;;;;;4.50;1.95;;;;;;;;;;4880643;29;20149;-94
2022/05/11 14:17:22;;;;;;;6.38;2.20;;;;;;;;;;4880682;29;20033;-84
2022/05/11 14:19:49;;;;;;;3.33;1.83;;;;;;;;;;4880478;29;20125;-84
2022/05/11 14:22:15;;;;;;;3.33;1.70;;;;;;;;;;4879996;29;20037;-94
2022/05/11 14:24:44;;;;;;;6.32;2.00;;;;;;;;;;4884722;29;20040;-96
2022/05/11 14:27:10;;;;;;;4.63;2.20;;;;;;;;;;4880274;29;20064;-83
2022/05/11 14:29:40;;;;;;;3.05;1.88;;;;;;;;;;4880155;29;20037;-93
2022/05/11 14:32:08;;;;;;;4.70;2.13;;;;;;;;;;4879743;29;20029;-84
2022/05/11 14:34:34;;;;;;;4.65;1.95;;;;;;;;;;4879430;29;20033;-84
2022/05/11 14:37:00;;;;;;;4.38;2.10;;;;;;;;;;4879506;29;20483;-83
2022/05/11 14:39:27;;;;;;;5.03;2.03;;;;;;;;;;4879381;29;20482;-84
2022/05/11 14:41:54;;;;;;;3.47;1.95;;;;;;;;;;4879359;29;20097;-85
2022/05/11 14:44:21;;;;;;;3.55;2.10;;;;;;;;;;4879279;29;20131;-84
2022/05/11 14:46:48;;;;;;;4.75;2.17;;;;;;;;;;4879694;29;20033;-83
2022/05/11 14:49:14;;;;;;;3.70;2.30;;;;;;;;;;4879642;29;20048;-88
2022/05/11 14:51:41;;;;;;;3.78;2.08;;;;;;;;;;4878746;29;20029;-82
2022/05/11 14:54:12;;;;;;;6.18;2.00;;;;;;;;;;4878435;29;20060;-82
2022/05/11 14:56:39;;;;;;;4.78;2.45;;;;;;;;;;4878698;29;20041;-82
2022/05/11 15:02:01;;;;;;;3.90;2.03;;;;;;;;;;4880020;29;20048;-93
2022/05/11 15:04:31;;;;;;;3.95;2.00;;;;;;;;;;4878938;29;20112;-85
2022/05/11 15:06:57;;;;;;;4.63;2.00;;;;;;;;;;4879238;29;20560;-83
2022/05/11 15:09:26;;;;;;;3.35;2.00;;;;;;;;;;4878497;29;20029;-81
2022/05/11 15:14:38;;;;;;;4.82;2.15;;;;;;;;;;4879664;29;20048;-81
2022/05/11 15:17:06;;;;;;;3.53;1.98;;;;;;;;;;4878065;29;20029;-82
2022/05/11 15:19:33;;;;;;;4.03;2.47;;;;;;;;;;4878618;29;20467;-84
2022/05/11 15:21:59;;;;;;;6.97;2.38;;;;;;;;;;4879291;29;20033;-95
2022/05/11 15:24:26;;;;;;;4.82;2.00;;;;;;;;;;4878911;29;20089;-84
2022/05/11 15:26:52;;;;;;;3.17;2.13;;;;;;;;;;4878317;29;20040;-84
2022/05/11 15:29:18;;;;;;;7.38;3.08;;;;;;;;;;4863198;29;20040;-83
2022/05/11 15:31:45;;;;;;;4.50;2.10;;;;;;;;;;4863303;29;20033;-85
2022/05/11 15:34:11;;;;;;;4.72;2.20;;;;;;;;;;4877987;29;20108;-82
2022/05/11 15:36:38;;;;;;;5.05;2.20;;;;;;;;;;4894411;29;20148;-90
2022/05/11 15:39:04;;;;;;;4.28;2.13;;;;;;;;;;4898452;29;20056;-81
2022/05/11 15:41:30;;;;;;;7.43;2.60;;;;;;;;;;4912482;29;20478;-80
2022/05/11 15:44:00;;;;;;;9.52;2.45;;;;;;;;;;4898124;29;20029;-81
2022/05/11 15:46:26;;;;;;;6.15;2.40;;;;;;;;;;4899264;29;20478;-81
2022/05/11 15:48:53;;;;;;;5.43;2.53;;;;;;;;;;4898693;29;20060;-80
2022/05/11 15:51:39;;;;;;;6.90;2.10;;;;;;;;;;4907899;29;20029;-92
2022/05/11 15:54:08;;;;;;;2.80;2.00;;;;;;;;;;4900136;29;20052;-95
2022/05/11 15:56:35;;;;;;;5.72;2.40;;;;;;;;;;4912634;29;20028;-91
2022/05/11 15:59:29;;;;;;;4.60;2.10;;;;;;;;;;4913195;29;20024;-85
2022/05/11 16:01:58;;;;;;;7.97;2.40;;;;;;;;;;4881475;29;20132;-91
2022/05/11 16:04:27;;;;;;;5.68;2.42;;;;;;;;;;4898105;29;20025;-88
2022/05/11 16:06:53;;;;;;;4.80;2.38;;;;;;;;;;4896829;29;20453;-82
2022/05/11 16:09:19;;;;;;;5.57;2.38;;;;;;;;;;4896133;29;20028;-79